sensor_id;sensor_type;location;lat;lon;timestamp;P1;durP1;ratioP1;P2;durP2;ratioP2
66619;SDS011;53484;51.356;6.732;2022-07-22T00:00:16;18.60;;;7.85;;
66619;SDS011;53484;51.356;6.732;2022-07-22T00:02:42;18.08;;;8.40;;
66619;SDS011;53484;51.356;6.732;2022-07-22T00:05:09;21.40;;;9.45;;
66619;SDS011;53484;51.356;6.732;2022-07-22T00:07:36;25.13;;;10.35;;
66619;SDS011;53484;51.356;6.732;2022-07-22T00:10:04;17.98;;;8.18;;
66619;SDS011;53484;51.356;6.732;2022-07-22T00:12:30;18.63;;;7.22;;
66619;SDS011;53484;51.356;6.732;2022-07-22T00:14:57;21.35;;;8.02;;
66619;SDS011;53484;51.356;6.732;2022-07-22T00:17:23;16.73;;;7.60;;
66619;SDS011;53484;51.356;6.732;2022-07-22T00:19:49;16.20;;;7.80;;
66619;SDS011;53484;51.356;6.732;2022-07-22T00:22:15;21.50;;;8.02;;
66619;SDS011;53484;51.356;6.732;2022-07-22T00:24:42;22.87;;;7.37;;
66619;SDS011;53484;51.356;6.732;2022-07-22T00:27:10;20.63;;;8.07;;
66619;SDS011;53484;51.356;6.732;2022-07-22T00:29:36;27.45;;;8.43;;
66619;SDS011;53484;51.356;6.732;2022-07-22T00:32:02;17.45;;;7.40;;
66619;SDS011;53484;51.356;6.732;2022-07-22T00:34:29;17.88;;;6.82;;
66619;SDS011;53484;51.356;6.732;2022-07-22T00:36:55;22.73;;;7.00;;
66619;SDS011;53484;51.356;6.732;2022-07-22T00:39:21;16.92;;;7.10;;
66619;SDS011;53484;51.356;6.732;2022-07-22T00:41:48;25.25;;;8.27;;
66619;SDS011;53484;51.356;6.732;2022-07-22T00:44:15;16.73;;;7.10;;
66619;SDS011;53484;51.356;6.732;2022-07-22T00:46:42;21.10;;;7.57;;
66619;SDS011;53484;51.356;6.732;2022-07-22T00:49:08;26.93;;;8.30;;
66619;SDS011;53484;51.356;6.732;2022-07-22T00:51:35;22.10;;;7.63;;
66619;SDS011;53484;51.356;6.732;2022-07-22T00:54:02;18.27;;;7.68;;
66619;SDS011;53484;51.356;6.732;2022-07-22T00:56:29;22.05;;;8.30;;
66619;SDS011;53484;51.356;6.732;2022-07-22T00:58:56;22.58;;;7.72;;
66619;SDS011;53484;51.356;6.732;2022-07-22T01:01:24;16.70;;;7.80;;
66619;SDS011;53484;51.356;6.732;2022-07-22T01:03:50;23.20;;;8.88;;
66619;SDS011;53484;51.356;6.732;2022-07-22T01:06:17;20.27;;;8.77;;
66619;SDS011;53484;51.356;6.732;2022-07-22T01:08:43;22.73;;;8.80;;
66619;SDS011;53484;51.356;6.732;2022-07-22T01:11:10;20.40;;;9.25;;
66619;SDS011;53484;51.356;6.732;2022-07-22T01:13:38;20.25;;;8.38;;
66619;SDS011;53484;51.356;6.732;2022-07-22T01:16:05;20.65;;;8.50;;
66619;SDS011;53484;51.356;6.732;2022-07-22T01:18:33;15.27;;;7.25;;
66619;SDS011;53484;51.356;6.732;2022-07-22T01:21:00;23.33;;;9.00;;
66619;SDS011;53484;51.356;6.732;2022-07-22T01:23:27;14.27;;;7.05;;
66619;SDS011;53484;51.356;6.732;2022-07-22T01:25:53;14.23;;;6.45;;
66619;SDS011;53484;51.356;6.732;2022-07-22T01:28:20;12.57;;;6.20;;
66619;SDS011;53484;51.356;6.732;2022-07-22T01:30:46;20.42;;;7.47;;
66619;SDS011;53484;51.356;6.732;2022-07-22T01:33:14;17.15;;;7.28;;
66619;SDS011;53484;51.356;6.732;2022-07-22T01:35:40;12.07;;;5.88;;
66619;SDS011;53484;51.356;6.732;2022-07-22T01:38:08;16.75;;;6.35;;
66619;SDS011;53484;51.356;6.732;2022-07-22T01:40:34;13.93;;;6.57;;
66619;SDS011;53484;51.356;6.732;2022-07-22T01:43:01;17.95;;;6.85;;
66619;SDS011;53484;51.356;6.732;2022-07-22T01:45:27;14.98;;;6.03;;
66619;SDS011;53484;51.356;6.732;2022-07-22T01:47:54;13.93;;;6.38;;
66619;SDS011;53484;51.356;6.732;2022-07-22T01:50:20;16.40;;;7.32;;
66619;SDS011;53484;51.356;6.732;2022-07-22T01:52:46;17.23;;;6.88;;
66619;SDS011;53484;51.356;6.732;2022-07-22T01:55:14;17.83;;;7.70;;
66619;SDS011;53484;51.356;6.732;2022-07-22T01:57:40;23.05;;;8.93;;
66619;SDS011;53484;51.356;6.732;2022-07-22T02:00:07;20.17;;;9.35;;
66619;SDS011;53484;51.356;6.732;2022-07-22T02:02:34;20.40;;;8.43;;
66619;SDS011;53484;51.356;6.732;2022-07-22T02:05:00;22.33;;;9.95;;
66619;SDS011;53484;51.356;6.732;2022-07-22T02:07:27;19.08;;;7.90;;
66619;SDS011;53484;51.356;6.732;2022-07-22T02:09:53;16.90;;;7.13;;
66619;SDS011;53484;51.356;6.732;2022-07-22T02:12:21;14.80;;;6.50;;
66619;SDS011;53484;51.356;6.732;2022-07-22T02:14:47;14.75;;;5.95;;
66619;SDS011;53484;51.356;6.732;2022-07-22T02:17:13;12.77;;;5.78;;
66619;SDS011;53484;51.356;6.732;2022-07-22T02:19:40;14.07;;;5.88;;
66619;SDS011;53484;51.356;6.732;2022-07-22T02:22:06;13.93;;;6.35;;
66619;SDS011;53484;51.356;6.732;2022-07-22T02:24:32;13.95;;;6.32;;
66619;SDS011;53484;51.356;6.732;2022-07-22T02:26:59;12.23;;;5.60;;
66619;SDS011;53484;51.356;6.732;2022-07-22T02:29:26;16.20;;;7.07;;
66619;SDS011;53484;51.356;6.732;2022-07-22T02:31:52;16.88;;;6.85;;
66619;SDS011;53484;51.356;6.732;2022-07-22T02:34:19;25.95;;;8.63;;
66619;SDS011;53484;51.356;6.732;2022-07-22T02:36:45;18.63;;;7.70;;
66619;SDS011;53484;51.356;6.732;2022-07-22T02:39:11;19.15;;;7.90;;
66619;SDS011;53484;51.356;6.732;2022-07-22T02:41:38;17.58;;;7.88;;
66619;SDS011;53484;51.356;6.732;2022-07-22T02:44:04;17.90;;;7.57;;
66619;SDS011;53484;51.356;6.732;2022-07-22T02:46:32;17.05;;;8.30;;
66619;SDS011;53484;51.356;6.732;2022-07-22T02:48:58;18.85;;;7.55;;
66619;SDS011;53484;51.356;6.732;2022-07-22T02:51:24;20.48;;;8.57;;
66619;SDS011;53484;51.356;6.732;2022-07-22T02:53:51;17.92;;;7.25;;
66619;SDS011;53484;51.356;6.732;2022-07-22T02:56:17;13.23;;;6.80;;
66619;SDS011;53484;51.356;6.732;2022-07-22T02:58:44;15.65;;;7.30;;
66619;SDS011;53484;51.356;6.732;2022-07-22T03:01:11;13.13;;;7.22;;
66619;SDS011;53484;51.356;6.732;2022-07-22T03:03:39;16.17;;;6.97;;
66619;SDS011;53484;51.356;6.732;2022-07-22T03:06:05;18.52;;;6.32;;
66619;SDS011;53484;51.356;6.732;2022-07-22T03:08:32;19.35;;;6.55;;
66619;SDS011;53484;51.356;6.732;2022-07-22T03:10:58;17.80;;;6.47;;
66619;SDS011;53484;51.356;6.732;2022-07-22T03:13:24;16.67;;;6.50;;
66619;SDS011;53484;51.356;6.732;2022-07-22T03:15:50;11.70;;;5.50;;
66619;SDS011;53484;51.356;6.732;2022-07-22T03:18:17;16.83;;;5.40;;
66619;SDS011;53484;51.356;6.732;2022-07-22T03:20:44;14.50;;;5.28;;
66619;SDS011;53484;51.356;6.732;2022-07-22T03:23:11;20.20;;;6.32;;
66619;SDS011;53484;51.356;6.732;2022-07-22T03:25:37;18.10;;;4.40;;
66619;SDS011;53484;51.356;6.732;2022-07-22T03:28:04;10.95;;;5.00;;
66619;SDS011;53484;51.356;6.732;2022-07-22T03:30:30;12.95;;;4.15;;
66619;SDS011;53484;51.356;6.732;2022-07-22T03:32:57;14.00;;;4.80;;
66619;SDS011;53484;51.356;6.732;2022-07-22T03:35:23;10.55;;;4.00;;
66619;SDS011;53484;51.356;6.732;2022-07-22T03:37:51;11.95;;;3.95;;
66619;SDS011;53484;51.356;6.732;2022-07-22T03:40:17;10.23;;;3.80;;
66619;SDS011;53484;51.356;6.732;2022-07-22T03:42:43;11.60;;;4.07;;
66619;SDS011;53484;51.356;6.732;2022-07-22T03:45:10;11.30;;;3.65;;
66619;SDS011;53484;51.356;6.732;2022-07-22T03:47:36;9.95;;;4.18;;
66619;SDS011;53484;51.356;6.732;2022-07-22T03:50:03;11.10;;;3.70;;
66619;SDS011;53484;51.356;6.732;2022-07-22T03:52:29;13.60;;;4.32;;
66619;SDS011;53484;51.356;6.732;2022-07-22T03:54:57;12.50;;;4.43;;
66619;SDS011;53484;51.356;6.732;2022-07-22T03:57:23;13.38;;;4.40;;
66619;SDS011;53484;51.356;6.732;2022-07-22T03:59:49;13.52;;;4.38;;
66619;SDS011;53484;51.356;6.732;2022-07-22T04:02:16;14.20;;;3.90;;
66619;SDS011;53484;51.356;6.732;2022-07-22T04:04:43;13.82;;;3.60;;
66619;SDS011;53484;51.356;6.732;2022-07-22T04:07:09;12.52;;;3.92;;
66619;SDS011;53484;51.356;6.732;2022-07-22T04:09:36;15.02;;;4.05;;
66619;SDS011;53484;51.356;6.732;2022-07-22T04:12:04;11.15;;;3.60;;
66619;SDS011;53484;51.356;6.732;2022-07-22T04:14:30;11.13;;;3.65;;
66619;SDS011;53484;51.356;6.732;2022-07-22T04:16:56;13.15;;;3.88;;
66619;SDS011;53484;51.356;6.732;2022-07-22T04:19:23;8.07;;;3.65;;
66619;SDS011;53484;51.356;6.732;2022-07-22T04:21:49;11.82;;;4.00;;
66619;SDS011;53484;51.356;6.732;2022-07-22T04:24:15;11.07;;;3.20;;
66619;SDS011;53484;51.356;6.732;2022-07-22T04:26:42;10.68;;;3.42;;
66619;SDS011;53484;51.356;6.732;2022-07-22T04:29:09;8.18;;;3.75;;
66619;SDS011;53484;51.356;6.732;2022-07-22T04:31:36;12.10;;;4.10;;
66619;SDS011;53484;51.356;6.732;2022-07-22T04:34:02;14.88;;;4.18;;
66619;SDS011;53484;51.356;6.732;2022-07-22T04:36:28;11.70;;;3.50;;
66619;SDS011;53484;51.356;6.732;2022-07-22T04:38:54;12.05;;;3.50;;
66619;SDS011;53484;51.356;6.732;2022-07-22T04:41:21;12.75;;;4.03;;
66619;SDS011;53484;51.356;6.732;2022-07-22T04:43:47;10.50;;;4.35;;
66619;SDS011;53484;51.356;6.732;2022-07-22T04:46:15;8.85;;;3.78;;
66619;SDS011;53484;51.356;6.732;2022-07-22T04:48:41;11.80;;;4.18;;
66619;SDS011;53484;51.356;6.732;2022-07-22T04:51:07;10.43;;;3.67;;
66619;SDS011;53484;51.356;6.732;2022-07-22T04:53:33;11.43;;;3.85;;
66619;SDS011;53484;51.356;6.732;2022-07-22T04:56:00;9.52;;;4.57;;
66619;SDS011;53484;51.356;6.732;2022-07-22T04:58:26;8.20;;;3.70;;
66619;SDS011;53484;51.356;6.732;2022-07-22T05:00:52;11.38;;;3.88;;
66619;SDS011;53484;51.356;6.732;2022-07-22T05:03:20;8.07;;;4.13;;
66619;SDS011;53484;51.356;6.732;2022-07-22T05:05:49;12.13;;;4.10;;
66619;SDS011;53484;51.356;6.732;2022-07-22T05:08:15;11.30;;;4.53;;
66619;SDS011;53484;51.356;6.732;2022-07-22T05:10:42;15.45;;;4.60;;
66619;SDS011;53484;51.356;6.732;2022-07-22T05:13:08;11.70;;;4.47;;
66619;SDS011;53484;51.356;6.732;2022-07-22T05:15:34;10.32;;;4.20;;
66619;SDS011;53484;51.356;6.732;2022-07-22T05:18:00;14.43;;;3.85;;
66619;SDS011;53484;51.356;6.732;2022-07-22T05:20:28;12.40;;;5.03;;
66619;SDS011;53484;51.356;6.732;2022-07-22T05:22:54;10.98;;;3.50;;
66619;SDS011;53484;51.356;6.732;2022-07-22T05:25:21;15.02;;;4.15;;
66619;SDS011;53484;51.356;6.732;2022-07-22T05:27:50;8.73;;;3.63;;
66619;SDS011;53484;51.356;6.732;2022-07-22T05:30:17;12.10;;;3.90;;
66619;SDS011;53484;51.356;6.732;2022-07-22T05:32:43;8.73;;;3.47;;
66619;SDS011;53484;51.356;6.732;2022-07-22T05:35:09;15.07;;;4.38;;
66619;SDS011;53484;51.356;6.732;2022-07-22T05:37:37;12.20;;;3.15;;
66619;SDS011;53484;51.356;6.732;2022-07-22T05:40:04;10.63;;;3.55;;
66619;SDS011;53484;51.356;6.732;2022-07-22T05:42:30;13.30;;;4.60;;
66619;SDS011;53484;51.356;6.732;2022-07-22T05:44:57;16.63;;;4.25;;
66619;SDS011;53484;51.356;6.732;2022-07-22T05:47:24;11.50;;;4.65;;
66619;SDS011;53484;51.356;6.732;2022-07-22T05:49:51;13.63;;;4.40;;
66619;SDS011;53484;51.356;6.732;2022-07-22T05:52:17;10.98;;;4.72;;
66619;SDS011;53484;51.356;6.732;2022-07-22T05:54:45;15.40;;;5.15;;
66619;SDS011;53484;51.356;6.732;2022-07-22T05:57:11;24.23;;;6.13;;
66619;SDS011;53484;51.356;6.732;2022-07-22T05:59:37;13.68;;;4.90;;
66619;SDS011;53484;51.356;6.732;2022-07-22T06:02:04;12.10;;;4.90;;
66619;SDS011;53484;51.356;6.732;2022-07-22T06:04:30;15.30;;;5.60;;
66619;SDS011;53484;51.356;6.732;2022-07-22T06:06:57;10.85;;;5.63;;
66619;SDS011;53484;51.356;6.732;2022-07-22T06:09:23;18.50;;;7.03;;
66619;SDS011;53484;51.356;6.732;2022-07-22T06:11:50;21.27;;;6.97;;
66619;SDS011;53484;51.356;6.732;2022-07-22T06:14:17;15.80;;;6.28;;
66619;SDS011;53484;51.356;6.732;2022-07-22T06:16:43;18.17;;;5.63;;
66619;SDS011;53484;51.356;6.732;2022-07-22T06:19:09;17.52;;;5.30;;
66619;SDS011;53484;51.356;6.732;2022-07-22T06:21:36;16.05;;;5.03;;
66619;SDS011;53484;51.356;6.732;2022-07-22T06:24:04;13.32;;;4.70;;
66619;SDS011;53484;51.356;6.732;2022-07-22T06:26:30;12.18;;;4.07;;
66619;SDS011;53484;51.356;6.732;2022-07-22T06:28:58;13.25;;;3.08;;
66619;SDS011;53484;51.356;6.732;2022-07-22T06:31:24;11.98;;;2.80;;
66619;SDS011;53484;51.356;6.732;2022-07-22T06:33:50;11.07;;;2.30;;
66619;SDS011;53484;51.356;6.732;2022-07-22T06:36:16;8.07;;;2.35;;
66619;SDS011;53484;51.356;6.732;2022-07-22T06:38:43;9.95;;;2.00;;
66619;SDS011;53484;51.356;6.732;2022-07-22T06:41:09;9.18;;;1.95;;
66619;SDS011;53484;51.356;6.732;2022-07-22T06:43:36;8.75;;;2.28;;
66619;SDS011;53484;51.356;6.732;2022-07-22T06:46:03;10.25;;;2.50;;
66619;SDS011;53484;51.356;6.732;2022-07-22T06:48:30;6.70;;;1.90;;
66619;SDS011;53484;51.356;6.732;2022-07-22T06:50:56;5.95;;;1.90;;
66619;SDS011;53484;51.356;6.732;2022-07-22T06:53:22;7.20;;;1.98;;
66619;SDS011;53484;51.356;6.732;2022-07-22T06:55:49;5.75;;;2.22;;
66619;SDS011;53484;51.356;6.732;2022-07-22T06:58:15;6.68;;;2.38;;
66619;SDS011;53484;51.356;6.732;2022-07-22T07:00:42;7.32;;;2.13;;
66619;SDS011;53484;51.356;6.732;2022-07-22T07:03:10;7.63;;;1.65;;
66619;SDS011;53484;51.356;6.732;2022-07-22T07:05:36;8.00;;;2.10;;
66619;SDS011;53484;51.356;6.732;2022-07-22T07:08:03;4.40;;;1.77;;
66619;SDS011;53484;51.356;6.732;2022-07-22T07:10:29;10.15;;;2.20;;
66619;SDS011;53484;51.356;6.732;2022-07-22T07:12:55;8.85;;;2.45;;
66619;SDS011;53484;51.356;6.732;2022-07-22T07:15:22;7.68;;;2.00;;
66619;SDS011;53484;51.356;6.732;2022-07-22T07:17:49;9.10;;;2.13;;
66619;SDS011;53484;51.356;6.732;2022-07-22T07:20:16;8.35;;;2.20;;
66619;SDS011;53484;51.356;6.732;2022-07-22T07:22:43;8.80;;;2.00;;
66619;SDS011;53484;51.356;6.732;2022-07-22T07:25:09;7.97;;;1.95;;
66619;SDS011;53484;51.356;6.732;2022-07-22T07:27:35;5.05;;;1.65;;
66619;SDS011;53484;51.356;6.732;2022-07-22T07:30:02;6.28;;;2.10;;
66619;SDS011;53484;51.356;6.732;2022-07-22T07:32:29;5.53;;;1.90;;
66619;SDS011;53484;51.356;6.732;2022-07-22T07:34:55;7.63;;;2.28;;
66619;SDS011;53484;51.356;6.732;2022-07-22T07:37:23;8.75;;;2.20;;
66619;SDS011;53484;51.356;6.732;2022-07-22T07:39:49;6.43;;;1.98;;
66619;SDS011;53484;51.356;6.732;2022-07-22T07:42:15;8.35;;;3.28;;
66619;SDS011;53484;51.356;6.732;2022-07-22T07:44:42;7.03;;;2.10;;
66619;SDS011;53484;51.356;6.732;2022-07-22T07:47:08;9.65;;;2.20;;
66619;SDS011;53484;51.356;6.732;2022-07-22T07:49:34;8.00;;;2.22;;
66619;SDS011;53484;51.356;6.732;2022-07-22T07:52:01;11.55;;;2.65;;
66619;SDS011;53484;51.356;6.732;2022-07-22T07:54:28;7.60;;;2.05;;
66619;SDS011;53484;51.356;6.732;2022-07-22T07:56:55;8.75;;;2.50;;
66619;SDS011;53484;51.356;6.732;2022-07-22T07:59:21;5.93;;;2.20;;
66619;SDS011;53484;51.356;6.732;2022-07-22T08:01:48;8.05;;;2.60;;
66619;SDS011;53484;51.356;6.732;2022-07-22T08:04:14;8.82;;;2.67;;
66619;SDS011;53484;51.356;6.732;2022-07-22T08:06:40;8.20;;;2.67;;
66619;SDS011;53484;51.356;6.732;2022-07-22T08:09:07;7.25;;;2.78;;
66619;SDS011;53484;51.356;6.732;2022-07-22T08:11:34;11.05;;;3.00;;
66619;SDS011;53484;51.356;6.732;2022-07-22T08:14:01;9.55;;;2.63;;
66619;SDS011;53484;51.356;6.732;2022-07-22T08:16:27;7.93;;;2.85;;
66619;SDS011;53484;51.356;6.732;2022-07-22T08:18:53;8.38;;;2.60;;
66619;SDS011;53484;51.356;6.732;2022-07-22T08:21:19;8.57;;;2.88;;
66619;SDS011;53484;51.356;6.732;2022-07-22T08:23:46;5.53;;;2.67;;
66619;SDS011;53484;51.356;6.732;2022-07-22T08:26:13;9.60;;;2.83;;
66619;SDS011;53484;51.356;6.732;2022-07-22T08:28:40;8.77;;;3.20;;
66619;SDS011;53484;51.356;6.732;2022-07-22T08:31:06;9.80;;;2.97;;
66619;SDS011;53484;51.356;6.732;2022-07-22T08:33:33;9.63;;;3.10;;
66619;SDS011;53484;51.356;6.732;2022-07-22T08:36:00;8.82;;;2.78;;
66619;SDS011;53484;51.356;6.732;2022-07-22T08:38:26;5.32;;;2.25;;
66619;SDS011;53484;51.356;6.732;2022-07-22T08:40:53;8.65;;;2.65;;
66619;SDS011;53484;51.356;6.732;2022-07-22T08:43:21;8.63;;;2.40;;
66619;SDS011;53484;51.356;6.732;2022-07-22T08:45:48;8.65;;;2.15;;
66619;SDS011;53484;51.356;6.732;2022-07-22T08:48:15;6.18;;;2.17;;
66619;SDS011;53484;51.356;6.732;2022-07-22T08:50:41;8.35;;;2.92;;
66619;SDS011;53484;51.356;6.732;2022-07-22T08:53:08;8.05;;;2.90;;
66619;SDS011;53484;51.356;6.732;2022-07-22T08:55:39;8.18;;;2.60;;
66619;SDS011;53484;51.356;6.732;2022-07-22T08:58:05;8.60;;;2.40;;
66619;SDS011;53484;51.356;6.732;2022-07-22T09:00:32;8.30;;;2.97;;
66619;SDS011;53484;51.356;6.732;2022-07-22T09:02:59;6.70;;;2.40;;
66619;SDS011;53484;51.356;6.732;2022-07-22T09:05:31;8.02;;;2.50;;
66619;SDS011;53484;51.356;6.732;2022-07-22T09:07:58;13.63;;;3.55;;
66619;SDS011;53484;51.356;6.732;2022-07-22T09:10:29;11.65;;;3.70;;
66619;SDS011;53484;51.356;6.732;2022-07-22T09:12:57;9.50;;;3.70;;
66619;SDS011;53484;51.356;6.732;2022-07-22T09:15:25;10.52;;;3.60;;
66619;SDS011;53484;51.356;6.732;2022-07-22T09:17:51;12.65;;;4.53;;
66619;SDS011;53484;51.356;6.732;2022-07-22T09:20:19;9.73;;;4.00;;
66619;SDS011;53484;51.356;6.732;2022-07-22T09:22:46;11.30;;;4.70;;
66619;SDS011;53484;51.356;6.732;2022-07-22T09:25:16;9.73;;;4.50;;
66619;SDS011;53484;51.356;6.732;2022-07-22T09:27:42;10.25;;;2.90;;
66619;SDS011;53484;51.356;6.732;2022-07-22T09:30:10;19.45;;;4.30;;
66619;SDS011;53484;51.356;6.732;2022-07-22T09:32:38;14.50;;;5.15;;
66619;SDS011;53484;51.356;6.732;2022-07-22T09:35:04;12.77;;;5.40;;
66619;SDS011;53484;51.356;6.732;2022-07-22T09:37:32;11.02;;;5.15;;
66619;SDS011;53484;51.356;6.732;2022-07-22T09:40:11;11.32;;;5.38;;
66619;SDS011;53484;51.356;6.732;2022-07-22T09:42:43;12.23;;;6.35;;
66619;SDS011;53484;51.356;6.732;2022-07-22T09:45:09;13.32;;;7.00;;
66619;SDS011;53484;51.356;6.732;2022-07-22T09:47:35;13.30;;;6.10;;
66619;SDS011;53484;51.356;6.732;2022-07-22T09:50:03;14.97;;;5.73;;
66619;SDS011;53484;51.356;6.732;2022-07-22T09:52:29;11.55;;;5.50;;
66619;SDS011;53484;51.356;6.732;2022-07-22T09:54:57;12.00;;;5.72;;
66619;SDS011;53484;51.356;6.732;2022-07-22T09:57:23;17.38;;;6.10;;
66619;SDS011;53484;51.356;6.732;2022-07-22T09:59:49;12.77;;;5.68;;
66619;SDS011;53484;51.356;6.732;2022-07-22T10:02:16;13.40;;;5.40;;
66619;SDS011;53484;51.356;6.732;2022-07-22T10:04:42;14.82;;;6.53;;
66619;SDS011;53484;51.356;6.732;2022-07-22T10:07:10;17.65;;;7.70;;
66619;SDS011;53484;51.356;6.732;2022-07-22T10:09:37;17.80;;;7.32;;
66619;SDS011;53484;51.356;6.732;2022-07-22T10:12:05;18.95;;;10.90;;
66619;SDS011;53484;51.356;6.732;2022-07-22T10:14:32;14.30;;;8.77;;
66619;SDS011;53484;51.356;6.732;2022-07-22T10:16:58;16.70;;;8.52;;
66619;SDS011;53484;51.356;6.732;2022-07-22T10:19:26;16.85;;;8.63;;
66619;SDS011;53484;51.356;6.732;2022-07-22T10:21:52;17.10;;;10.10;;
66619;SDS011;53484;51.356;6.732;2022-07-22T10:24:19;15.45;;;9.45;;
66619;SDS011;53484;51.356;6.732;2022-07-22T10:26:49;14.70;;;9.07;;
66619;SDS011;53484;51.356;6.732;2022-07-22T10:29:29;17.42;;;8.60;;
66619;SDS011;53484;51.356;6.732;2022-07-22T10:34:42;15.82;;;8.45;;
66619;SDS011;53484;51.356;6.732;2022-07-22T10:42:35;17.17;;;9.20;;
66619;SDS011;53484;51.356;6.732;2022-07-22T10:45:23;17.15;;;8.55;;
66619;SDS011;53484;51.356;6.732;2022-07-22T10:47:53;14.65;;;7.60;;
66619;SDS011;53484;51.356;6.732;2022-07-22T10:50:39;15.23;;;8.07;;
66619;SDS011;53484;51.356;6.732;2022-07-22T10:53:06;17.57;;;7.93;;
66619;SDS011;53484;51.356;6.732;2022-07-22T10:55:33;13.95;;;7.40;;
66619;SDS011;53484;51.356;6.732;2022-07-22T10:58:00;16.20;;;8.18;;
66619;SDS011;53484;51.356;6.732;2022-07-22T11:00:28;13.27;;;7.97;;
66619;SDS011;53484;51.356;6.732;2022-07-22T11:02:54;13.82;;;7.88;;
66619;SDS011;53484;51.356;6.732;2022-07-22T11:05:24;12.10;;;7.37;;
66619;SDS011;53484;51.356;6.732;2022-07-22T11:07:51;13.88;;;8.02;;
66619;SDS011;53484;51.356;6.732;2022-07-22T11:10:18;14.45;;;8.10;;
66619;SDS011;53484;51.356;6.732;2022-07-22T11:12:45;14.73;;;7.88;;
66619;SDS011;53484;51.356;6.732;2022-07-22T11:15:14;15.27;;;7.60;;
66619;SDS011;53484;51.356;6.732;2022-07-22T11:17:43;16.77;;;8.90;;
66619;SDS011;53484;51.356;6.732;2022-07-22T11:20:10;17.52;;;11.07;;
66619;SDS011;53484;51.356;6.732;2022-07-22T11:22:36;22.38;;;11.57;;
66619;SDS011;53484;51.356;6.732;2022-07-22T11:25:04;19.50;;;10.45;;
66619;SDS011;53484;51.356;6.732;2022-07-22T11:27:30;16.73;;;10.90;;
66619;SDS011;53484;51.356;6.732;2022-07-22T11:29:57;17.27;;;9.95;;
66619;SDS011;53484;51.356;6.732;2022-07-22T11:32:24;16.48;;;11.73;;
66619;SDS011;53484;51.356;6.732;2022-07-22T11:34:52;17.05;;;10.93;;
66619;SDS011;53484;51.356;6.732;2022-07-22T11:37:19;19.85;;;12.38;;
66619;SDS011;53484;51.356;6.732;2022-07-22T11:39:48;25.92;;;15.25;;
66619;SDS011;53484;51.356;6.732;2022-07-22T11:42:14;24.00;;;15.63;;
66619;SDS011;53484;51.356;6.732;2022-07-22T11:44:41;23.27;;;14.75;;
66619;SDS011;53484;51.356;6.732;2022-07-22T11:47:08;17.38;;;11.65;;
66619;SDS011;53484;51.356;6.732;2022-07-22T11:49:35;13.80;;;10.60;;
66619;SDS011;53484;51.356;6.732;2022-07-22T11:52:04;17.10;;;9.30;;
66619;SDS011;53484;51.356;6.732;2022-07-22T11:54:32;15.80;;;8.30;;
66619;SDS011;53484;51.356;6.732;2022-07-22T11:56:59;14.60;;;7.97;;
66619;SDS011;53484;51.356;6.732;2022-07-22T11:59:25;12.63;;;6.57;;
66619;SDS011;53484;51.356;6.732;2022-07-22T12:01:52;11.98;;;7.50;;
66619;SDS011;53484;51.356;6.732;2022-07-22T12:04:19;12.80;;;7.60;;
66619;SDS011;53484;51.356;6.732;2022-07-22T12:06:45;11.07;;;6.23;;
66619;SDS011;53484;51.356;6.732;2022-07-22T12:09:14;12.80;;;6.55;;
66619;SDS011;53484;51.356;6.732;2022-07-22T12:11:42;10.20;;;6.80;;
66619;SDS011;53484;51.356;6.732;2022-07-22T12:14:08;11.13;;;6.93;;
66619;SDS011;53484;51.356;6.732;2022-07-22T12:16:36;12.80;;;7.35;;
66619;SDS011;53484;51.356;6.732;2022-07-22T12:19:03;11.93;;;6.90;;
66619;SDS011;53484;51.356;6.732;2022-07-22T12:21:30;13.73;;;7.10;;
66619;SDS011;53484;51.356;6.732;2022-07-22T12:23:57;16.98;;;7.55;;
66619;SDS011;53484;51.356;6.732;2022-07-22T12:26:40;11.93;;;6.45;;
66619;SDS011;53484;51.356;6.732;2022-07-22T12:29:15;12.60;;;8.18;;
66619;SDS011;53484;51.356;6.732;2022-07-22T12:31:42;15.87;;;9.10;;
66619;SDS011;53484;51.356;6.732;2022-07-22T12:34:08;12.75;;;7.65;;
66619;SDS011;53484;51.356;6.732;2022-07-22T12:36:34;10.88;;;6.60;;
66619;SDS011;53484;51.356;6.732;2022-07-22T12:39:10;10.20;;;6.47;;
66619;SDS011;53484;51.356;6.732;2022-07-22T12:41:43;11.98;;;6.47;;
66619;SDS011;53484;51.356;6.732;2022-07-22T12:44:15;12.23;;;6.27;;
66619;SDS011;53484;51.356;6.732;2022-07-22T12:46:44;13.02;;;6.90;;
66619;SDS011;53484;51.356;6.732;2022-07-22T12:49:10;12.50;;;6.72;;
66619;SDS011;53484;51.356;6.732;2022-07-22T12:51:36;13.20;;;6.90;;
66619;SDS011;53484;51.356;6.732;2022-07-22T12:54:03;11.68;;;6.57;;
66619;SDS011;53484;51.356;6.732;2022-07-22T12:56:29;8.70;;;5.93;;
66619;SDS011;53484;51.356;6.732;2022-07-22T12:58:56;10.52;;;5.70;;
66619;SDS011;53484;51.356;6.732;2022-07-22T13:01:23;10.50;;;5.15;;
66619;SDS011;53484;51.356;6.732;2022-07-22T13:03:49;9.68;;;5.90;;
66619;SDS011;53484;51.356;6.732;2022-07-22T13:06:16;13.20;;;6.15;;
66619;SDS011;53484;51.356;6.732;2022-07-22T13:08:42;11.00;;;5.63;;
66619;SDS011;53484;51.356;6.732;2022-07-22T13:11:08;8.52;;;5.45;;
66619;SDS011;53484;51.356;6.732;2022-07-22T13:13:35;9.30;;;5.97;;
66619;SDS011;53484;51.356;6.732;2022-07-22T13:16:01;10.57;;;4.85;;
66619;SDS011;53484;51.356;6.732;2022-07-22T13:18:28;12.48;;;5.18;;
66619;SDS011;53484;51.356;6.732;2022-07-22T13:20:55;9.37;;;5.07;;
66619;SDS011;53484;51.356;6.732;2022-07-22T13:23:21;9.25;;;5.32;;
66619;SDS011;53484;51.356;6.732;2022-07-22T13:25:47;11.30;;;5.05;;
66619;SDS011;53484;51.356;6.732;2022-07-22T13:28:14;10.77;;;5.18;;
66619;SDS011;53484;51.356;6.732;2022-07-22T13:30:40;10.30;;;4.53;;
66619;SDS011;53484;51.356;6.732;2022-07-22T13:33:06;9.83;;;4.53;;
66619;SDS011;53484;51.356;6.732;2022-07-22T13:35:34;7.30;;;4.55;;
66619;SDS011;53484;51.356;6.732;2022-07-22T13:38:01;9.52;;;4.53;;
66619;SDS011;53484;51.356;6.732;2022-07-22T13:40:28;12.55;;;4.13;;
66619;SDS011;53484;51.356;6.732;2022-07-22T13:42:54;7.55;;;4.15;;
66619;SDS011;53484;51.356;6.732;2022-07-22T13:45:20;8.73;;;4.10;;
66619;SDS011;53484;51.356;6.732;2022-07-22T13:47:47;8.63;;;3.80;;
66619;SDS011;53484;51.356;6.732;2022-07-22T13:50:13;7.18;;;3.80;;
66619;SDS011;53484;51.356;6.732;2022-07-22T13:52:41;9.40;;;4.68;;
66619;SDS011;53484;51.356;6.732;2022-07-22T13:55:11;9.07;;;4.90;;
66619;SDS011;53484;51.356;6.732;2022-07-22T13:57:38;9.10;;;5.03;;
66619;SDS011;53484;51.356;6.732;2022-07-22T14:00:05;9.73;;;4.40;;
66619;SDS011;53484;51.356;6.732;2022-07-22T14:02:33;8.15;;;4.70;;
66619;SDS011;53484;51.356;6.732;2022-07-22T14:04:59;11.05;;;4.38;;
66619;SDS011;53484;51.356;6.732;2022-07-22T14:07:25;9.98;;;4.65;;
66619;SDS011;53484;51.356;6.732;2022-07-22T14:09:53;8.20;;;4.50;;
66619;SDS011;53484;51.356;6.732;2022-07-22T14:12:20;11.20;;;5.00;;
66619;SDS011;53484;51.356;6.732;2022-07-22T14:14:46;8.40;;;4.75;;
66619;SDS011;53484;51.356;6.732;2022-07-22T14:17:12;10.77;;;5.65;;
66619;SDS011;53484;51.356;6.732;2022-07-22T14:19:39;9.43;;;5.30;;
66619;SDS011;53484;51.356;6.732;2022-07-22T14:22:05;10.67;;;5.27;;
66619;SDS011;53484;51.356;6.732;2022-07-22T14:24:31;9.50;;;5.20;;
66619;SDS011;53484;51.356;6.732;2022-07-22T14:26:59;7.93;;;4.78;;
66619;SDS011;53484;51.356;6.732;2022-07-22T14:29:25;11.40;;;5.00;;
66619;SDS011;53484;51.356;6.732;2022-07-22T14:31:51;9.18;;;5.10;;
66619;SDS011;53484;51.356;6.732;2022-07-22T14:34:18;11.90;;;4.97;;
66619;SDS011;53484;51.356;6.732;2022-07-22T14:36:44;8.40;;;4.63;;
66619;SDS011;53484;51.356;6.732;2022-07-22T14:39:10;8.48;;;4.30;;
66619;SDS011;53484;51.356;6.732;2022-07-22T14:41:37;8.70;;;5.10;;
66619;SDS011;53484;51.356;6.732;2022-07-22T14:44:04;9.32;;;4.53;;